Time;durP1;ratioP1;P1;durP2;ratioP2;P2;SDS_P1;SDS_P2;PMS_P1;PMS_P2;Temp;Humidity;BMP_temperature;BMP_pressure;BME280_temperature;BME280_humidity;BME280_pressure;Samples;Min_cycle;Max_cycle;Signal;HPM_P1;HPM_P2
2023/06/08 00:01:17;;;;;;;25.70;23.90;;;;;;;;;;5076875;28;20488;-81
2023/06/08 00:03:44;;;;;;;26.53;24.33;;;;;;;;;;5078312;28;20457;-80
2023/06/08 00:06:15;;;;;;;27.80;25.37;;;;;;;;;;5076993;28;20452;-82
2023/06/08 00:08:43;;;;;;;26.50;24.63;;;;;;;;;;5077924;28;20441;-82
2023/06/08 00:11:11;;;;;;;25.97;24.03;;;;;;;;;;5077034;28;20997;-82
2023/06/08 00:13:38;;;;;;;27.90;25.60;;;;;;;;;;5077629;28;20454;-82
2023/06/08 00:16:06;;;;;;;27.47;25.27;;;;;;;;;;5076806;28;20510;-81
2023/06/08 00:18:36;;;;;;;28.43;25.93;;;;;;;;;;5076658;28;20469;-81
2023/06/08 00:21:03;;;;;;;30.00;27.70;;;;;;;;;;5076658;28;20834;-82
2023/06/08 00:23:30;;;;;;;26.93;24.50;;;;;;;;;;5076697;28;20433;-82
2023/06/08 00:25:57;;;;;;;26.97;24.90;;;;;;;;;;5076226;28;20523;-82
2023/06/08 00:28:26;;;;;;;28.20;26.10;;;;;;;;;;5076923;28;20445;-81
2023/06/08 00:30:53;;;;;;;27.37;25.43;;;;;;;;;;5075945;28;20497;-81
2023/06/08 00:33:20;;;;;;;26.93;25.13;;;;;;;;;;5076682;28;20453;-82
2023/06/08 00:35:47;;;;;;;26.90;24.70;;;;;;;;;;5075427;28;20552;-82
2023/06/08 00:38:14;;;;;;;28.20;25.47;;;;;;;;;;5075825;28;20457;-82
2023/06/08 00:40:42;;;;;;;26.87;24.97;;;;;;;;;;5075843;28;20558;-81
2023/06/08 00:43:09;;;;;;;27.37;25.40;;;;;;;;;;5076585;28;20496;-81
2023/06/08 00:45:40;;;;;;;28.00;25.90;;;;;;;;;;5075799;28;20459;-82
2023/06/08 00:48:08;;;;;;;27.90;25.83;;;;;;;;;;5076209;28;20808;-82
2023/06/08 00:50:35;;;;;;;28.50;26.20;;;;;;;;;;5075484;28;20539;-82
2023/06/08 00:53:02;;;;;;;26.67;24.77;;;;;;;;;;5076032;28;20876;-81
2023/06/08 00:55:33;;;;;;;28.20;26.00;;;;;;;;;;5075835;28;20428;-80
2023/06/08 00:58:00;;;;;;;27.43;25.23;;;;;;;;;;5076173;28;20433;-82
2023/06/08 01:00:29;;;;;;;27.63;25.83;;;;;;;;;;5076152;28;20480;-81
2023/06/08 01:02:58;;;;;;;27.07;25.27;;;;;;;;;;5075053;28;20543;-81
2023/06/08 01:05:26;;;;;;;28.53;26.33;;;;;;;;;;5076268;28;20456;-82
2023/06/08 01:07:58;;;;;;;27.40;25.40;;;;;;;;;;5076213;28;20507;-82
2023/06/08 01:10:29;;;;;;;26.93;25.00;;;;;;;;;;5076078;28;20499;-82
2023/06/08 01:12:59;;;;;;;27.80;25.70;;;;;;;;;;5075391;28;20495;-81
2023/06/08 01:15:28;;;;;;;28.27;25.73;;;;;;;;;;5076084;28;20506;-81
2023/06/08 01:17:58;;;;;;;27.77;25.77;;;;;;;;;;5074861;28;20437;-81
2023/06/08 01:20:34;;;;;;;28.30;25.60;;;;;;;;;;5075412;28;20521;-81
2023/06/08 01:23:07;;;;;;;27.93;25.47;;;;;;;;;;5074953;28;20447;-81
2023/06/08 01:25:36;;;;;;;27.40;25.60;;;;;;;;;;5074968;28;20791;-81
2023/06/08 01:28:12;;;;;;;29.23;26.63;;;;;;;;;;5075649;28;20494;-81
2023/06/08 01:30:40;;;;;;;28.13;26.00;;;;;;;;;;5075876;28;20469;-82
2023/06/08 01:33:07;;;;;;;29.37;27.33;;;;;;;;;;5075165;28;20491;-81
2023/06/08 01:35:35;;;;;;;30.57;27.83;;;;;;;;;;5075233;28;20477;-80
2023/06/08 01:38:05;;;;;;;28.10;25.93;;;;;;;;;;5075491;28;20445;-81
2023/06/08 01:40:36;;;;;;;33.23;26.77;;;;;;;;;;5075887;28;20965;-81
2023/06/08 01:43:07;;;;;;;28.00;25.90;;;;;;;;;;5075125;28;20818;-81
2023/06/08 01:45:37;;;;;;;28.80;26.17;;;;;;;;;;5074220;28;20428;-81
2023/06/08 01:48:05;;;;;;;27.20;25.10;;;;;;;;;;5076299;28;20441;-83
2023/06/08 01:50:33;;;;;;;27.23;25.33;;;;;;;;;;5077211;28;20534;-83
2023/06/08 01:53:01;;;;;;;30.30;27.70;;;;;;;;;;5077188;28;21035;-83
2023/06/08 01:55:28;;;;;;;29.03;26.60;;;;;;;;;;5077045;28;20453;-82
2023/06/08 01:57:55;;;;;;;30.97;28.20;;;;;;;;;;5077135;28;20426;-83
2023/06/08 02:00:26;;;;;;;28.47;25.63;;;;;;;;;;5076311;28;20834;-83
2023/06/08 02:02:53;;;;;;;29.60;27.30;;;;;;;;;;5076857;28;20483;-83
2023/06/08 02:05:20;;;;;;;29.67;27.30;;;;;;;;;;5076310;28;20510;-82
2023/06/08 02:07:47;;;;;;;32.10;29.30;;;;;;;;;;5076052;28;20498;-82
2023/06/08 02:10:16;;;;;;;31.83;29.37;;;;;;;;;;5076054;28;20439;-81
2023/06/08 02:12:43;;;;;;;30.83;28.00;;;;;;;;;;5075368;28;20926;-82
2023/06/08 02:15:10;;;;;;;30.23;27.70;;;;;;;;;;5076090;28;20445;-82
2023/06/08 02:17:39;;;;;;;29.70;26.90;;;;;;;;;;5075177;28;20778;-82
2023/06/08 02:20:07;;;;;;;30.30;27.90;;;;;;;;;;5076056;28;20498;-82
2023/06/08 02:22:35;;;;;;;30.37;28.07;;;;;;;;;;5076517;28;20857;-82
2023/06/08 02:25:02;;;;;;;29.17;27.00;;;;;;;;;;5075866;28;20920;-83
2023/06/08 02:27:29;;;;;;;29.60;27.03;;;;;;;;;;5075318;28;20458;-81
2023/06/08 02:29:56;;;;;;;28.57;26.03;;;;;;;;;;5074912;28;20990;-82
2023/06/08 02:32:23;;;;;;;28.30;25.80;;;;;;;;;;5075599;28;20515;-81
2023/06/08 02:34:55;;;;;;;27.70;25.30;;;;;;;;;;5075463;28;20425;-82
2023/06/08 02:37:22;;;;;;;28.27;25.87;;;;;;;;;;5074606;28;20832;-82
2023/06/08 02:39:49;;;;;;;31.20;28.30;;;;;;;;;;5075339;28;20842;-82
2023/06/08 02:42:18;;;;;;;30.57;27.53;;;;;;;;;;5075733;28;20451;-82
2023/06/08 02:44:45;;;;;;;30.10;26.00;;;;;;;;;;5076027;28;20537;-81
2023/06/08 02:47:12;;;;;;;27.70;25.50;;;;;;;;;;5078756;28;20411;-82
2023/06/08 02:49:39;;;;;;;28.40;25.70;;;;;;;;;;5078659;28;20460;-80
2023/06/08 02:52:08;;;;;;;27.43;25.40;;;;;;;;;;5078869;28;20551;-81
2023/06/08 02:54:36;;;;;;;30.03;27.57;;;;;;;;;;5079457;28;20448;-81
2023/06/08 02:57:03;;;;;;;28.30;26.10;;;;;;;;;;5078303;28;20466;-82
2023/06/08 02:59:31;;;;;;;28.30;26.10;;;;;;;;;;5079255;28;21001;-82
2023/06/08 03:01:58;;;;;;;28.67;26.37;;;;;;;;;;5079246;28;20545;-82
2023/06/08 03:04:27;;;;;;;29.40;26.77;;;;;;;;;;5079449;28;20450;-81
2023/06/08 03:06:54;;;;;;;30.87;27.93;;;;;;;;;;5078636;28;20431;-82
2023/06/08 03:09:23;;;;;;;30.20;27.77;;;;;;;;;;5077445;28;20814;-82
2023/06/08 03:11:51;;;;;;;28.63;25.80;;;;;;;;;;5078529;28;21172;-82
2023/06/08 03:14:18;;;;;;;28.57;26.37;;;;;;;;;;5078945;28;20438;-82
2023/06/08 03:16:45;;;;;;;30.23;27.47;;;;;;;;;;5079124;28;20425;-82
2023/06/08 03:19:12;;;;;;;29.63;27.00;;;;;;;;;;5078470;28;20779;-80
2023/06/08 03:21:41;;;;;;;30.00;27.20;;;;;;;;;;5075805;28;20536;-76
2023/06/08 03:24:09;;;;;;;29.30;26.70;;;;;;;;;;5076579;28;20455;-78
2023/06/08 03:26:38;;;;;;;29.37;26.90;;;;;;;;;;5076191;28;20854;-78
2023/06/08 03:29:05;;;;;;;29.17;26.77;;;;;;;;;;5077237;28;20425;-77
2023/06/08 03:31:36;;;;;;;29.17;26.63;;;;;;;;;;5076744;28;20842;-78
2023/06/08 03:34:03;;;;;;;29.80;27.63;;;;;;;;;;5077014;28;20441;-78
2023/06/08 03:36:33;;;;;;;31.00;28.33;;;;;;;;;;5076436;28;20447;-78
2023/06/08 03:39:01;;;;;;;28.80;26.40;;;;;;;;;;5076259;28;20528;-78
2023/06/08 03:41:28;;;;;;;28.53;26.17;;;;;;;;;;5076724;28;20445;-78
2023/06/08 03:43:56;;;;;;;28.80;26.40;;;;;;;;;;5076851;28;20472;-77
2023/06/08 03:46:24;;;;;;;28.07;25.77;;;;;;;;;;5084399;28;20480;-78
2023/06/08 03:48:51;;;;;;;28.33;26.27;;;;;;;;;;5089998;28;20509;-78
2023/06/08 03:51:19;;;;;;;27.60;25.50;;;;;;;;;;5088763;28;20488;-78
2023/06/08 03:53:46;;;;;;;28.23;25.80;;;;;;;;;;5079208;28;20457;-78
2023/06/08 03:56:14;;;;;;;27.33;25.27;;;;;;;;;;5074854;28;20948;-79
2023/06/08 03:58:41;;;;;;;29.63;26.87;;;;;;;;;;5076841;28;20442;-78
2023/06/08 04:01:10;;;;;;;29.07;26.60;;;;;;;;;;5075924;28;20511;-78
2023/06/08 04:03:37;;;;;;;27.40;25.13;;;;;;;;;;5076829;28;20453;-78
2023/06/08 04:06:05;;;;;;;31.80;28.60;;;;;;;;;;5076330;28;20535;-79
2023/06/08 04:08:32;;;;;;;29.23;26.90;;;;;;;;;;5076342;28;20451;-78
2023/06/08 04:10:59;;;;;;;28.77;26.63;;;;;;;;;;5075058;28;21093;-76
2023/06/08 04:13:26;;;;;;;29.40;26.90;;;;;;;;;;5077598;28;20537;-78
2023/06/08 04:15:53;;;;;;;28.67;25.93;;;;;;;;;;5075609;28;20796;-78
2023/06/08 04:18:22;;;;;;;28.77;26.43;;;;;;;;;;5076026;28;20503;-78
2023/06/08 04:20:49;;;;;;;30.40;27.80;;;;;;;;;;5076257;28;20473;-77
2023/06/08 04:23:16;;;;;;;28.57;26.00;;;;;;;;;;5075181;28;20496;-78
2023/06/08 04:25:43;;;;;;;29.23;26.70;;;;;;;;;;5075325;28;20455;-78
2023/06/08 04:28:10;;;;;;;31.77;29.00;;;;;;;;;;5075924;28;20940;-77
2023/06/08 04:30:37;;;;;;;29.47;27.07;;;;;;;;;;5075556;28;20563;-78
2023/06/08 04:33:05;;;;;;;31.10;28.10;;;;;;;;;;5075589;28;20510;-77
2023/06/08 04:35:33;;;;;;;30.97;28.03;;;;;;;;;;5075723;28;20536;-79
2023/06/08 04:38:00;;;;;;;30.30;27.80;;;;;;;;;;5075163;28;20558;-77
2023/06/08 04:40:29;;;;;;;30.43;27.77;;;;;;;;;;5075608;28;20449;-77
2023/06/08 04:42:59;;;;;;;29.20;26.67;;;;;;;;;;5075474;28;20445;-77
2023/06/08 04:45:26;;;;;;;29.40;27.00;;;;;;;;;;5075713;28;20418;-77
2023/06/08 04:47:53;;;;;;;28.13;25.70;;;;;;;;;;5074572;28;20422;-77
2023/06/08 04:50:21;;;;;;;30.20;27.50;;;;;;;;;;5075346;28;20447;-77
2023/06/08 04:52:50;;;;;;;30.13;27.40;;;;;;;;;;5075112;28;20563;-77
2023/06/08 04:55:19;;;;;;;28.87;26.67;;;;;;;;;;5075410;28;20780;-77
2023/06/08 04:57:46;;;;;;;30.20;27.70;;;;;;;;;;5074715;28;20779;-78
2023/06/08 05:00:14;;;;;;;29.17;26.80;;;;;;;;;;5074344;28;20483;-77
2023/06/08 05:02:41;;;;;;;29.00;26.40;;;;;;;;;;5073461;28;20985;-77
2023/06/08 05:05:08;;;;;;;27.47;25.47;;;;;;;;;;5075148;28;20452;-77
2023/06/08 05:07:35;;;;;;;27.60;25.40;;;;;;;;;;5073803;28;20454;-77
2023/06/08 05:10:04;;;;;;;29.13;26.10;;;;;;;;;;5073850;28;20483;-77
2023/06/08 05:12:31;;;;;;;29.60;26.97;;;;;;;;;;5074704;28;20461;-78
2023/06/08 05:14:59;;;;;;;29.37;27.20;;;;;;;;;;5076167;28;20429;-78
2023/06/08 05:17:26;;;;;;;27.50;25.17;;;;;;;;;;5074406;28;20531;-78
2023/06/08 05:19:53;;;;;;;27.80;25.70;;;;;;;;;;5075330;28;20802;-78
2023/06/08 05:22:20;;;;;;;28.97;26.33;;;;;;;;;;5074924;28;20442;-78
2023/06/08 05:24:47;;;;;;;27.53;25.10;;;;;;;;;;5073942;28;21072;-79
2023/06/08 05:27:15;;;;;;;28.60;26.00;;;;;;;;;;5073779;28;20398;-78
2023/06/08 05:29:42;;;;;;;28.73;26.07;;;;;;;;;;5074364;28;20464;-77
2023/06/08 05:32:10;;;;;;;28.97;26.50;;;;;;;;;;5074645;28;20436;-77
2023/06/08 05:34:37;;;;;;;28.13;25.57;;;;;;;;;;5074695;28;20473;-77
2023/06/08 05:37:04;;;;;;;27.60;25.27;;;;;;;;;;5074362;28;20455;-77
2023/06/08 05:39:31;;;;;;;28.67;26.27;;;;;;;;;;5073492;28;20958;-77
2023/06/08 05:41:58;;;;;;;29.90;27.30;;;;;;;;;;5074949;28;20425;-77
2023/06/08 05:44:26;;;;;;;30.10;27.50;;;;;;;;;;5074849;28;20442;-77
2023/06/08 05:46:53;;;;;;;29.23;26.73;;;;;;;;;;5073904;28;20939;-78
2023/06/08 05:49:20;;;;;;;29.73;26.70;;;;;;;;;;5074191;28;20450;-77
2023/06/08 05:51:47;;;;;;;29.50;26.90;;;;;;;;;;5074180;28;20450;-77
2023/06/08 05:54:14;;;;;;;29.13;26.67;;;;;;;;;;5074488;28;20470;-78
2023/06/08 05:56:41;;;;;;;28.07;25.67;;;;;;;;;;5073329;28;20981;-78
2023/06/08 05:59:08;;;;;;;31.63;27.47;;;;;;;;;;5074035;28;20504;-78
2023/06/08 06:01:37;;;;;;;30.17;27.63;;;;;;;;;;5073660;28;20451;-78
2023/06/08 06:04:04;;;;;;;28.10;26.00;;;;;;;;;;5074469;28;20450;-77
2023/06/08 06:06:32;;;;;;;28.33;25.90;;;;;;;;;;5073284;28;20427;-77
2023/06/08 06:08:59;;;;;;;27.23;24.93;;;;;;;;;;5074418;28;20486;-78
2023/06/08 06:11:26;;;;;;;27.60;25.27;;;;;;;;;;5073906;28;20441;-77
2023/06/08 06:13:53;;;;;;;28.80;26.60;;;;;;;;;;5074425;28;20885;-79
2023/06/08 06:16:20;;;;;;;28.63;26.33;;;;;;;;;;5075427;28;20504;-79
2023/06/08 06:18:48;;;;;;;28.50;26.10;;;;;;;;;;5075042;28;20505;-78
2023/06/08 06:21:16;;;;;;;28.50;26.20;;;;;;;;;;5074066;28;20483;-79
2023/06/08 06:23:44;;;;;;;28.53;26.20;;;;;;;;;;5074894;28;20409;-78
2023/06/08 06:26:11;;;;;;;29.53;26.73;;;;;;;;;;5076500;28;20459;-80
2023/06/08 06:28:39;;;;;;;29.80;26.57;;;;;;;;;;5075112;28;20425;-78
2023/06/08 06:31:06;;;;;;;29.30;26.80;;;;;;;;;;5073961;28;20515;-79
2023/06/08 06:33:33;;;;;;;27.60;25.60;;;;;;;;;;5074580;28;20452;-78
2023/06/08 06:36:01;;;;;;;28.67;26.07;;;;;;;;;;5074204;28;20437;-78
2023/06/08 06:38:29;;;;;;;29.40;26.60;;;;;;;;;;5074095;28;20461;-78
2023/06/08 06:40:55;;;;;;;27.17;25.30;;;;;;;;;;5074295;28;20474;-79
2023/06/08 06:43:24;;;;;;;27.40;25.40;;;;;;;;;;5073574;28;20442;-78
2023/06/08 06:45:51;;;;;;;29.83;27.53;;;;;;;;;;5073655;28;20861;-78
2023/06/08 06:48:18;;;;;;;28.37;26.13;;;;;;;;;;5074239;28;20451;-78
2023/06/08 06:50:45;;;;;;;28.00;25.90;;;;;;;;;;5074133;28;20654;-78
2023/06/08 06:53:13;;;;;;;28.67;26.37;;;;;;;;;;5074243;28;20484;-79
2023/06/08 06:55:41;;;;;;;28.90;25.83;;;;;;;;;;5066020;28;20479;-79
2023/06/08 06:58:08;;;;;;;29.50;27.00;;;;;;;;;;5074423;28;20448;-78
2023/06/08 07:00:37;;;;;;;28.73;26.50;;;;;;;;;;5073312;28;20485;-79
2023/06/08 07:03:04;;;;;;;29.37;26.47;;;;;;;;;;5073596;28;20423;-78
2023/06/08 07:05:31;;;;;;;28.77;26.23;;;;;;;;;;5073495;28;20906;-79
2023/06/08 07:07:59;;;;;;;28.37;26.00;;;;;;;;;;5074142;28;20503;-78
2023/06/08 07:10:27;;;;;;;29.07;26.77;;;;;;;;;;5074061;28;20475;-78
2023/06/08 07:12:54;;;;;;;28.30;26.10;;;;;;;;;;5073821;28;20430;-78
2023/06/08 07:15:21;;;;;;;28.83;26.60;;;;;;;;;;5072822;28;20469;-79
2023/06/08 07:17:48;;;;;;;30.00;26.10;;;;;;;;;;5072723;28;21035;-77
2023/06/08 07:20:15;;;;;;;28.53;26.30;;;;;;;;;;5074020;28;20471;-78
2023/06/08 07:22:42;;;;;;;30.10;27.50;;;;;;;;;;5073499;28;20984;-81
2023/06/08 07:25:09;;;;;;;29.17;27.00;;;;;;;;;;5079309;28;20465;-85
2023/06/08 07:27:38;;;;;;;32.17;28.43;;;;;;;;;;5076646;28;20449;-86
2023/06/08 07:30:05;;;;;;;29.53;27.37;;;;;;;;;;5076170;28;20461;-86
2023/06/08 07:32:33;;;;;;;27.53;25.63;;;;;;;;;;5079458;28;20411;-87
2023/06/08 07:35:03;;;;;;;28.07;25.90;;;;;;;;;;5081077;28;20488;-87
2023/06/08 07:37:30;;;;;;;27.03;25.23;;;;;;;;;;5078027;28;20509;-79
2023/06/08 07:39:57;;;;;;;28.43;25.90;;;;;;;;;;5076805;28;20466;-80
2023/06/08 07:42:24;;;;;;;28.70;26.77;;;;;;;;;;5077826;28;20481;-80
2023/06/08 07:44:54;;;;;;;28.87;26.13;;;;;;;;;;5077857;28;20452;-87
2023/06/08 07:47:21;;;;;;;27.73;25.60;;;;;;;;;;5077529;28;20423;-82
2023/06/08 07:49:48;;;;;;;26.80;25.00;;;;;;;;;;5077997;28;20522;-85
2023/06/08 07:52:15;;;;;;;27.40;25.20;;;;;;;;;;5077190;28;20474;-79
2023/06/08 07:54:42;;;;;;;27.50;25.50;;;;;;;;;;5077184;28;20456;-79
2023/06/08 07:57:09;;;;;;;27.90;25.80;;;;;;;;;;5076599;28;20443;-87
2023/06/08 07:59:36;;;;;;;28.60;26.20;;;;;;;;;;5078053;28;20446;-79
2023/06/08 08:02:05;;;;;;;27.03;25.20;;;;;;;;;;5077552;28;20453;-79
2023/06/08 08:04:32;;;;;;;27.70;25.30;;;;;;;;;;5077560;28;20448;-80
2023/06/08 08:06:59;;;;;;;29.03;26.77;;;;;;;;;;5077042;28;20458;-79
2023/06/08 08:09:26;;;;;;;30.80;28.00;;;;;;;;;;5076662;28;20864;-79
2023/06/08 08:11:53;;;;;;;28.73;26.33;;;;;;;;;;5077618;28;20503;-79
2023/06/08 08:14:20;;;;;;;28.90;26.37;;;;;;;;;;5077537;28;20493;-80
2023/06/08 08:16:47;;;;;;;28.77;26.67;;;;;;;;;;5075961;28;20941;-79
2023/06/08 08:19:17;;;;;;;29.37;27.23;;;;;;;;;;5077228;28;20446;-81
2023/06/08 08:21:44;;;;;;;29.43;26.93;;;;;;;;;;5076685;28;20509;-79
2023/06/08 08:24:11;;;;;;;28.00;26.00;;;;;;;;;;5077126;28;20449;-79
2023/06/08 08:26:38;;;;;;;28.67;26.67;;;;;;;;;;5076713;28;20904;-80
2023/06/08 08:29:05;;;;;;;28.37;26.00;;;;;;;;;;5079157;28;20453;-79
2023/06/08 08:31:32;;;;;;;28.83;26.43;;;;;;;;;;5098538;28;20441;-79
2023/06/08 08:33:59;;;;;;;27.97;25.97;;;;;;;;;;5098872;28;20481;-79
2023/06/08 08:36:27;;;;;;;29.27;27.20;;;;;;;;;;5091360;28;20441;-79
2023/06/08 08:38:54;;;;;;;27.37;24.97;;;;;;;;;;5076839;28;20481;-80
2023/06/08 08:41:22;;;;;;;29.23;26.93;;;;;;;;;;5077446;28;20484;-78
2023/06/08 08:43:51;;;;;;;28.17;26.17;;;;;;;;;;5075488;28;20811;-79
2023/06/08 08:46:18;;;;;;;29.13;27.00;;;;;;;;;;5076652;28;20449;-79
2023/06/08 08:48:48;;;;;;;28.50;26.50;;;;;;;;;;5076832;28;20479;-79
2023/06/08 08:51:18;;;;;;;30.00;27.43;;;;;;;;;;5075178;28;21043;-79
2023/06/08 08:53:47;;;;;;;29.50;27.20;;;;;;;;;;5076092;28;20820;-78
2023/06/08 08:56:15;;;;;;;29.73;27.23;;;;;;;;;;5079417;28;20456;-80
2023/06/08 08:58:43;;;;;;;30.03;27.50;;;;;;;;;;5076612;28;20457;-85
2023/06/08 09:01:11;;;;;;;29.07;27.03;;;;;;;;;;5078897;28;20449;-79
2023/06/08 09:03:40;;;;;;;29.70;27.60;;;;;;;;;;5077173;28;20476;-79
2023/06/08 09:06:07;;;;;;;31.73;29.20;;;;;;;;;;5076080;28;20848;-81
2023/06/08 09:08:34;;;;;;;29.80;27.60;;;;;;;;;;5077354;28;21195;-79
2023/06/08 09:11:04;;;;;;;29.20;27.00;;;;;;;;;;5076762;28;20447;-79
2023/06/08 09:13:31;;;;;;;31.00;28.60;;;;;;;;;;5075494;28;20880;-80
2023/06/08 09:15:58;;;;;;;29.97;27.47;;;;;;;;;;5075179;28;20955;-79
2023/06/08 09:18:25;;;;;;;29.37;27.17;;;;;;;;;;5076049;28;20478;-79
2023/06/08 09:20:52;;;;;;;29.67;27.57;;;;;;;;;;5076182;28;20500;-80
2023/06/08 09:23:22;;;;;;;29.83;27.43;;;;;;;;;;5075520;28;20469;-79
2023/06/08 09:25:51;;;;;;;30.13;27.93;;;;;;;;;;5074965;28;20457;-79
2023/06/08 09:28:24;;;;;;;30.00;27.80;;;;;;;;;;5075947;28;20766;-79
2023/06/08 09:30:51;;;;;;;29.50;26.97;;;;;;;;;;5075922;28;20455;-79
2023/06/08 09:33:20;;;;;;;30.73;28.13;;;;;;;;;;5075227;28;20457;-79
2023/06/08 09:35:47;;;;;;;30.60;27.93;;;;;;;;;;5073497;28;20605;-78
2023/06/08 09:38:19;;;;;;;28.23;26.30;;;;;;;;;;5075181;28;20424;-79
2023/06/08 09:40:46;;;;;;;30.53;28.20;;;;;;;;;;5074878;28;20451;-79
2023/06/08 09:43:13;;;;;;;28.90;26.90;;;;;;;;;;5074972;28;20454;-79
2023/06/08 09:45:48;;;;;;;31.50;28.97;;;;;;;;;;5073359;28;20415;-79
2023/06/08 09:48:15;;;;;;;31.67;28.87;;;;;;;;;;5075046;28;20427;-79
2023/06/08 09:50:43;;;;;;;32.33;29.20;;;;;;;;;;5074796;28;20489;-78
2023/06/08 09:53:10;;;;;;;32.13;29.60;;;;;;;;;;5076053;28;20424;-79
2023/06/08 09:55:41;;;;;;;31.57;28.80;;;;;;;;;;5075988;28;20500;-79
2023/06/08 09:58:08;;;;;;;30.10;27.43;;;;;;;;;;5075523;28;20475;-79
2023/06/08 10:00:36;;;;;;;30.07;27.80;;;;;;;;;;5076044;28;20451;-79
2023/06/08 10:03:09;;;;;;;30.30;28.03;;;;;;;;;;5080441;28;20453;-85
2023/06/08 10:05:38;;;;;;;29.70;27.60;;;;;;;;;;5084646;28;20434;-82
2023/06/08 10:08:07;;;;;;;28.80;26.70;;;;;;;;;;5078693;28;20466;-78
2023/06/08 10:10:36;;;;;;;29.97;27.87;;;;;;;;;;5079011;28;20482;-80
2023/06/08 10:13:03;;;;;;;31.23;28.97;;;;;;;;;;5079094;28;20966;-81
2023/06/08 10:15:30;;;;;;;30.33;28.33;;;;;;;;;;5076174;28;20473;-79
2023/06/08 10:17:58;;;;;;;29.93;27.87;;;;;;;;;;5076210;28;20445;-79
2023/06/08 10:20:27;;;;;;;32.97;30.57;;;;;;;;;;5078195;28;20444;-79
2023/06/08 10:22:55;;;;;;;30.70;28.43;;;;;;;;;;5079197;28;21007;-85
2023/06/08 10:25:22;;;;;;;32.67;30.40;;;;;;;;;;5062213;28;20447;-84
2023/06/08 10:27:49;;;;;;;29.90;27.60;;;;;;;;;;5063482;28;20466;-83
2023/06/08 10:30:27;;;;;;;32.13;29.83;;;;;;;;;;5078420;28;20470;-81
2023/06/08 10:32:55;;;;;;;31.43;29.23;;;;;;;;;;5075628;28;20459;-78
2023/06/08 10:35:23;;;;;;;31.77;29.07;;;;;;;;;;5073871;28;20496;-77
2023/06/08 10:37:51;;;;;;;33.57;30.83;;;;;;;;;;5073889;28;20466;-78
2023/06/08 10:40:21;;;;;;;33.23;30.63;;;;;;;;;;5073842;28;20474;-78
2023/06/08 10:42:56;;;;;;;31.83;29.40;;;;;;;;;;5074585;28;20420;-77
2023/06/08 10:45:32;;;;;;;32.40;30.00;;;;;;;;;;5071544;28;21042;-82
2023/06/08 10:48:04;;;;;;;34.00;31.10;;;;;;;;;;5077324;28;20428;-84
2023/06/08 10:50:31;;;;;;;30.23;27.80;;;;;;;;;;5070218;28;21156;-82
2023/06/08 10:53:00;;;;;;;29.63;27.33;;;;;;;;;;5073696;28;20412;-84
2023/06/08 10:55:28;;;;;;;30.80;28.80;;;;;;;;;;5070532;28;20835;-83
2023/06/08 10:57:55;;;;;;;32.63;30.23;;;;;;;;;;5072691;28;21016;-83
2023/06/08 11:00:46;;;;;;;30.37;28.07;;;;;;;;;;5072493;28;20836;-84
2023/06/08 11:03:16;;;;;;;32.70;29.73;;;;;;;;;;5070629;28;20511;-84
2023/06/08 11:05:44;;;;;;;32.13;29.60;;;;;;;;;;5076148;28;20544;-86
2023/06/08 11:08:13;;;;;;;30.97;28.50;;;;;;;;;;5075475;28;20914;-76
2023/06/08 11:10:41;;;;;;;29.50;27.50;;;;;;;;;;5076360;28;20448;-76
2023/06/08 11:13:08;;;;;;;31.20;28.90;;;;;;;;;;5076253;28;20454;-77
2023/06/08 11:15:36;;;;;;;31.77;29.37;;;;;;;;;;5075666;28;20469;-77
2023/06/08 11:18:04;;;;;;;30.50;28.30;;;;;;;;;;5076168;28;20533;-77
2023/06/08 11:20:32;;;;;;;32.40;29.90;;;;;;;;;;5075527;28;20488;-76
2023/06/08 11:22:59;;;;;;;32.07;29.33;;;;;;;;;;5075965;28;20424;-77
2023/06/08 11:25:27;;;;;;;30.80;28.60;;;;;;;;;;5074677;28;20499;-76
2023/06/08 11:27:55;;;;;;;32.97;30.30;;;;;;;;;;5075790;28;20534;-77
2023/06/08 11:30:23;;;;;;;32.17;29.40;;;;;;;;;;5075844;28;20536;-76
2023/06/08 11:32:51;;;;;;;30.50;28.30;;;;;;;;;;5075776;28;20838;-76
2023/06/08 11:35:19;;;;;;;32.03;29.60;;;;;;;;;;5074800;28;20480;-76
2023/06/08 11:37:46;;;;;;;30.27;28.07;;;;;;;;;;5074923;28;20420;-76
2023/06/08 11:40:14;;;;;;;34.13;31.83;;;;;;;;;;5075309;28;20513;-77
2023/06/08 11:42:43;;;;;;;31.43;29.13;;;;;;;;;;5075758;28;20424;-76
2023/06/08 11:45:11;;;;;;;30.03;27.83;;;;;;;;;;5075427;28;20424;-77
2023/06/08 11:47:40;;;;;;;29.43;27.40;;;;;;;;;;5073962;28;20493;-76
2023/06/08 11:50:07;;;;;;;31.80;29.50;;;;;;;;;;5075055;28;20970;-76
2023/06/08 11:52:35;;;;;;;31.67;29.27;;;;;;;;;;5075024;28;21022;-76
2023/06/08 11:55:04;;;;;;;31.17;28.87;;;;;;;;;;5075098;28;20604;-75
2023/06/08 11:57:41;;;;;;;30.27;27.80;;;;;;;;;;5074221;28;20435;-76
2023/06/08 12:00:12;;;;;;;31.73;29.43;;;;;;;;;;5075516;28;20951;-75
2023/06/08 12:02:39;;;;;;;31.30;29.10;;;;;;;;;;5075231;28;20417;-76
2023/06/08 12:05:07;;;;;;;32.50;29.90;;;;;;;;;;5075480;28;20424;-77
2023/06/08 12:07:35;;;;;;;31.90;29.70;;;;;;;;;;5074538;28;20468;-75
2023/06/08 12:10:02;;;;;;;32.80;30.37;;;;;;;;;;5075057;28;20512;-77
2023/06/08 12:12:29;;;;;;;32.30;30.00;;;;;;;;;;5075925;28;20448;-76
2023/06/08 12:14:57;;;;;;;30.30;28.20;;;;;;;;;;5075119;28;20514;-77
2023/06/08 12:17:29;;;;;;;31.20;29.10;;;;;;;;;;5073254;28;20458;-76
2023/06/08 12:19:56;;;;;;;31.83;29.63;;;;;;;;;;5074897;28;20494;-76
2023/06/08 12:22:23;;;;;;;30.37;28.37;;;;;;;;;;5074199;28;20962;-76
2023/06/08 12:24:50;;;;;;;31.93;29.73;;;;;;;;;;5075017;28;20445;-76
2023/06/08 12:27:17;;;;;;;31.77;29.47;;;;;;;;;;5074666;28;20481;-76
2023/06/08 12:29:44;;;;;;;30.73;28.57;;;;;;;;;;5074519;28;20473;-77
2023/06/08 12:32:11;;;;;;;29.87;27.93;;;;;;;;;;5074418;28;20454;-76
2023/06/08 12:34:39;;;;;;;31.77;29.50;;;;;;;;;;5074222;28;20523;-77
2023/06/08 12:37:06;;;;;;;31.47;29.23;;;;;;;;;;5074293;28;20938;-77
2023/06/08 12:39:33;;;;;;;32.17;29.67;;;;;;;;;;5074798;28;20448;-78
2023/06/08 12:42:00;;;;;;;31.47;29.30;;;;;;;;;;5074941;28;20434;-77
2023/06/08 12:44:27;;;;;;;31.60;29.40;;;;;;;;;;5074098;28;20471;-77
2023/06/08 12:46:54;;;;;;;31.40;29.10;;;;;;;;;;5074097;28;20934;-77
2023/06/08 12:49:22;;;;;;;31.30;29.10;;;;;;;;;;5074975;28;20446;-77
2023/06/08 12:51:51;;;;;;;31.87;29.63;;;;;;;;;;5074922;28;20432;-77
2023/06/08 12:54:18;;;;;;;31.40;29.20;;;;;;;;;;5075204;28;20511;-81
2023/06/08 12:56:45;;;;;;;30.90;28.70;;;;;;;;;;5075680;28;20489;-80
2023/06/08 12:59:12;;;;;;;32.13;29.70;;;;;;;;;;5077166;28;20861;-80
2023/06/08 13:01:39;;;;;;;32.03;29.80;;;;;;;;;;5079856;28;20442;-80
2023/06/08 13:04:06;;;;;;;30.80;28.70;;;;;;;;;;5076995;28;20500;-80
2023/06/08 13:06:33;;;;;;;31.27;28.97;;;;;;;;;;5075801;28;20477;-81
2023/06/08 13:09:03;;;;;;;31.10;29.10;;;;;;;;;;5082611;28;20430;-80
2023/06/08 13:11:30;;;;;;;32.17;29.83;;;;;;;;;;5095635;28;20981;-81
2023/06/08 13:13:57;;;;;;;31.00;28.90;;;;;;;;;;5097158;28;20420;-80
2023/06/08 13:16:24;;;;;;;31.23;28.50;;;;;;;;;;5088641;28;20444;-82
2023/06/08 13:18:51;;;;;;;30.53;28.10;;;;;;;;;;5078484;28;20457;-81
2023/06/08 13:21:18;;;;;;;31.47;29.07;;;;;;;;;;5078141;28;20500;-82
2023/06/08 13:23:46;;;;;;;30.60;28.50;;;;;;;;;;5077409;28;20462;-81
2023/06/08 13:26:14;;;;;;;31.63;29.10;;;;;;;;;;5076125;28;20498;-81
2023/06/08 13:28:41;;;;;;;30.20;28.00;;;;;;;;;;5077592;28;20428;-81
2023/06/08 13:31:08;;;;;;;30.37;28.13;;;;;;;;;;5075983;28;20429;-81
2023/06/08 13:33:35;;;;;;;30.00;27.80;;;;;;;;;;5075643;28;20974;-81
2023/06/08 13:36:02;;;;;;;28.10;26.07;;;;;;;;;;5078261;28;20555;-82
2023/06/08 13:38:30;;;;;;;29.60;27.80;;;;;;;;;;5080061;28;20428;-82
2023/06/08 13:40:57;;;;;;;30.27;27.93;;;;;;;;;;5077403;28;20454;-88
2023/06/08 13:43:29;;;;;;;29.90;27.90;;;;;;;;;;5078960;28;20398;-90
2023/06/08 13:45:58;;;;;;;30.07;27.80;;;;;;;;;;5077853;28;20438;-78
2023/06/08 13:48:26;;;;;;;30.30;28.30;;;;;;;;;;5075135;28;20416;-81
2023/06/08 13:50:53;;;;;;;29.90;27.77;;;;;;;;;;5074918;28;20509;-75
2023/06/08 13:53:20;;;;;;;29.30;27.50;;;;;;;;;;5074920;28;20471;-75
2023/06/08 13:55:47;;;;;;;29.70;27.80;;;;;;;;;;5076087;28;20989;-76
2023/06/08 13:58:15;;;;;;;28.90;27.00;;;;;;;;;;5073487;28;20486;-76
2023/06/08 14:00:43;;;;;;;28.60;26.90;;;;;;;;;;5073124;28;20481;-76
2023/06/08 14:03:10;;;;;;;29.57;27.57;;;;;;;;;;5081317;28;20922;-76
2023/06/08 14:05:37;;;;;;;29.20;27.30;;;;;;;;;;5074668;28;20556;-76
2023/06/08 14:08:04;;;;;;;28.80;26.87;;;;;;;;;;5076743;28;20454;-76
2023/06/08 14:10:31;;;;;;;29.17;27.27;;;;;;;;;;5079685;28;20466;-75
2023/06/08 14:12:58;;;;;;;29.27;27.00;;;;;;;;;;5089454;28;20415;-75
2023/06/08 14:15:26;;;;;;;29.47;27.67;;;;;;;;;;5090456;28;20448;-75
2023/06/08 14:17:56;;;;;;;30.37;27.93;;;;;;;;;;5081746;28;20450;-75
2023/06/08 14:20:24;;;;;;;29.03;27.20;;;;;;;;;;5080715;28;20476;-76